Time;durP1;ratioP1;P1;durP2;ratioP2;P2;SDS_P1;SDS_P2;PMS_P1;PMS_P2;Temp;Humidity;BMP_temperature;BMP_pressure;BME280_temperature;BME280_humidity;BME280_pressure;Samples;Min_cycle;Max_cycle;Signal;HPM_P1;HPM_P2
2022/04/20 00:02:20;;;;;;;10.38;3.72;;;22.50;57.60;;;;;;5069716;28;20066;-64
2022/04/20 00:04:46;;;;;;;7.13;3.92;;;22.50;57.60;;;;;;5067425;28;20021;-65
2022/04/20 00:07:13;;;;;;;9.52;4.38;;;22.50;57.50;;;;;;5069500;28;20000;-64
2022/04/20 02:40:51;;;;;;;5.88;2.03;;;21.10;56.00;;;;;;5088514;27;20492;-66
2022/04/20 02:43:18;;;;;;;8.35;2.30;;;21.20;55.90;;;;;;5050007;28;20036;-68
2022/04/20 02:45:45;;;;;;;5.07;2.33;;;21.20;55.60;;;;;;5044366;28;20427;-67
2022/04/20 02:48:11;;;;;;;4.15;1.85;;;21.20;55.50;;;;;;5050246;28;20021;-67
2022/04/20 02:50:38;;;;;;;4.97;2.53;;;21.20;55.40;;;;;;5046605;28;20517;-67
2022/04/20 02:53:05;;;;;;;3.55;2.13;;;21.30;56.00;;;;;;5047737;28;20022;-69
2022/04/20 02:55:31;;;;;;;3.00;2.08;;;21.30;55.30;;;;;;5043400;28;20483;-66
2022/04/20 02:57:58;;;;;;;5.30;2.10;;;21.30;55.30;;;;;;5055925;28;20032;-66
2022/04/20 03:00:24;;;;;;;8.23;2.65;;;21.30;55.20;;;;;;5047712;28;20045;-66
2022/04/20 03:02:51;;;;;;;5.60;2.28;;;21.30;55.10;;;;;;5047476;28;20013;-66
2022/04/20 03:05:17;;;;;;;7.35;2.22;;;21.30;55.10;;;;;;5046546;28;20018;-67
2022/04/20 03:07:44;;;;;;;6.53;2.15;;;21.30;55.10;;;;;;5043564;28;20361;-66
2022/04/20 03:10:10;;;;;;;2.20;1.88;;;21.20;55.10;;;;;;5053114;28;20028;-66
2022/04/20 03:12:37;;;;;;;3.05;1.83;;;21.20;55.10;;;;;;5045899;28;20392;-66
2022/04/20 03:15:03;;;;;;;5.57;1.92;;;21.20;55.00;;;;;;5047917;28;20029;-66
2022/04/20 03:17:30;;;;;;;3.38;1.80;;;21.20;55.10;;;;;;5049760;28;20029;-66
2022/04/20 03:19:56;;;;;;;2.97;1.95;;;21.20;55.10;;;;;;5053718;28;20025;-67
2022/04/20 03:22:23;;;;;;;4.50;1.90;;;21.20;55.20;;;;;;5043506;28;20021;-66
2022/04/20 03:24:49;;;;;;;8.38;2.35;;;21.20;55.20;;;;;;5044221;28;20464;-66
2022/04/20 03:27:16;;;;;;;11.25;2.78;;;21.10;55.20;;;;;;5054557;28;20467;-66
2022/04/20 03:29:42;;;;;;;9.93;2.85;;;21.10;55.20;;;;;;5045572;28;20037;-66
2022/04/20 03:32:11;;;;;;;5.68;2.78;;;21.10;55.20;;;;;;5043890;28;20025;-67
2022/04/20 03:34:39;;;;;;;3.28;2.17;;;21.10;55.20;;;;;;5044584;28;20458;-71
2022/04/20 03:37:06;;;;;;;5.13;3.30;;;21.10;55.20;;;;;;5047361;28;20026;-67
2022/04/20 03:39:33;;;;;;;5.90;2.30;;;21.10;55.20;;;;;;5043466;28;20046;-67
2022/04/20 03:42:00;;;;;;;5.97;2.45;;;21.10;55.30;;;;;;5032651;28;20030;-67
2022/04/20 03:44:27;;;;;;;4.20;2.22;;;21.10;55.30;;;;;;5034279;28;20155;-66
2022/04/20 03:46:53;;;;;;;4.30;2.05;;;21.10;55.30;;;;;;5034045;28;20014;-70
2022/04/20 03:49:20;;;;;;;4.18;2.75;;;21.00;55.30;;;;;;5037936;28;20087;-71
2022/04/20 03:51:46;;;;;;;5.35;2.58;;;21.00;55.40;;;;;;5029956;28;20143;-67
2022/04/20 03:54:13;;;;;;;13.57;3.35;;;21.00;55.40;;;;;;5034469;28;20541;-67
2022/04/20 03:59:27;;;;;;;13.65;3.45;;;21.00;55.70;;;;;;5031512;28;20060;-67
2022/04/20 04:01:53;;;;;;;7.30;3.45;;;21.00;56.00;;;;;;5035323;28;20484;-67
2022/04/20 04:04:21;;;;;;;7.18;2.97;;;20.90;55.80;;;;;;5031338;28;20428;-67
2022/04/20 04:06:47;;;;;;;5.75;2.30;;;20.90;55.70;;;;;;5040181;28;20103;-68
2022/04/20 04:09:14;;;;;;;6.65;2.55;;;20.90;55.60;;;;;;5030972;28;20037;-67
2022/04/20 04:11:40;;;;;;;6.93;2.45;;;20.90;55.60;;;;;;5030782;28;20025;-67
2022/04/20 04:14:07;;;;;;;6.22;1.98;;;20.80;55.50;;;;;;5036787;28;20082;-67
2022/04/20 04:16:36;;;;;;;6.07;3.35;;;20.90;55.50;;;;;;5040510;28;20077;-69
2022/04/20 04:19:07;;;;;;;5.80;2.63;;;20.90;54.90;;;;;;5033699;28;20376;-69
2022/04/20 04:21:38;;;;;;;4.80;2.17;;;20.80;55.70;;;;;;5037003;28;20144;-70
2022/04/20 04:24:09;;;;;;;6.30;2.10;;;20.70;56.40;;;;;;5029057;28;20013;-69
2022/04/20 04:26:38;;;;;;;9.50;2.35;;;20.70;56.50;;;;;;5034866;28;20539;-68
2022/04/20 04:29:04;;;;;;;9.55;3.35;;;20.70;56.70;;;;;;5034933;28;20413;-68
2022/04/20 04:31:31;;;;;;;9.00;5.07;;;20.80;56.40;;;;;;5036612;28;20024;-72
2022/04/20 04:33:57;;;;;;;8.50;4.15;;;20.80;56.20;;;;;;5030332;28;20092;-68
2022/04/20 04:36:24;;;;;;;10.05;4.78;;;20.70;56.00;;;;;;5029376;28;20101;-69
2022/04/20 04:38:50;;;;;;;8.07;3.72;;;20.70;55.90;;;;;;5035809;28;20077;-69
2022/04/20 04:41:17;;;;;;;5.07;2.40;;;20.70;55.80;;;;;;5032697;28;20026;-69
2022/04/20 04:43:43;;;;;;;5.70;3.72;;;20.70;55.80;;;;;;5030828;28;20049;-71
2022/04/20 04:48:54;;;;;;;11.52;2.53;;;20.70;55.90;;;;;;5031936;28;20173;-70
2022/04/20 04:51:21;;;;;;;36.40;4.95;;;20.60;56.00;;;;;;5032812;28;20056;-72
2022/04/20 04:53:47;;;;;;;21.58;3.92;;;20.70;56.20;;;;;;5039124;28;20039;-69
2022/04/20 04:56:14;;;;;;;10.57;3.28;;;20.60;56.30;;;;;;5033127;28;20499;-70
2022/04/20 04:58:40;;;;;;;9.15;3.67;;;20.60;56.30;;;;;;5031683;28;20051;-70
2022/04/20 05:01:06;;;;;;;8.45;3.72;;;20.60;56.20;;;;;;5032444;28;20024;-70
2022/04/20 05:03:33;;;;;;;8.02;3.88;;;20.60;56.30;;;;;;5033699;28;20036;-69
2022/04/20 05:05:59;;;;;;;8.13;4.03;;;20.60;56.20;;;;;;5036868;28;20485;-71
2022/04/20 05:08:26;;;;;;;10.05;4.10;;;20.50;56.50;;;;;;5030863;28;20029;-71
2022/04/20 05:10:53;;;;;;;16.98;5.13;;;20.60;57.10;;;;;;5029527;28;20029;-69
2022/04/20 05:13:19;;;;;;;9.43;5.65;;;20.60;57.40;;;;;;5025767;28;20018;-69
2022/04/20 05:15:45;;;;;;;16.45;7.25;;;20.60;57.60;;;;;;5034032;28;20025;-70
2022/04/20 05:18:12;;;;;;;13.98;7.90;;;20.50;58.10;;;;;;5015431;28;20112;-70
2022/04/20 05:20:39;;;;;;;14.82;7.80;;;20.60;58.20;;;;;;5028462;28;20028;-70
2022/04/20 05:23:09;;;;;;;17.75;9.55;;;20.60;58.30;;;;;;5033241;28;20022;-69
2022/04/20 05:25:35;;;;;;;18.77;9.98;;;20.60;58.50;;;;;;5027248;28;20734;-69
2022/04/20 05:28:02;;;;;;;23.83;10.98;;;20.60;58.60;;;;;;5016448;28;20541;-69
2022/04/20 05:30:29;;;;;;;17.70;10.77;;;20.50;58.70;;;;;;5035262;28;20061;-70
2022/04/20 05:32:55;;;;;;;28.02;11.80;;;20.60;58.90;;;;;;5033788;28;20025;-70
2022/04/20 05:35:22;;;;;;;29.45;12.45;;;20.60;58.80;;;;;;5033071;28;20562;-69
2022/04/20 05:43:17;;;;;;;24.13;12.23;;;20.70;58.90;;;;;;5035118;28;20035;-70
2022/04/20 05:45:44;;;;;;;20.83;12.05;;;20.60;58.70;;;;;;5025666;28;20472;-69
2022/04/20 05:48:10;;;;;;;29.15;13.75;;;20.70;58.80;;;;;;5032085;28;20059;-69
2022/04/20 05:50:38;;;;;;;29.00;13.48;;;20.60;59.20;;;;;;5028700;28;20021;-70
2022/04/20 05:53:05;;;;;;;23.52;12.50;;;20.60;59.20;;;;;;5033353;28;20060;-70
2022/04/20 05:55:31;;;;;;;21.77;11.85;;;20.60;59.30;;;;;;5024855;28;20484;-71
2022/04/20 05:57:57;;;;;;;22.65;12.10;;;20.60;59.40;;;;;;5030913;28;20026;-69
2022/04/20 06:00:24;;;;;;;20.90;12.45;;;20.60;59.40;;;;;;5031326;28;20028;-70
2022/04/20 06:02:52;;;;;;;30.33;12.50;;;20.70;59.50;;;;;;5039412;28;20075;-69
2022/04/20 06:05:20;;;;;;;27.30;12.90;;;20.60;59.50;;;;;;5030887;28;20033;-70
2022/04/20 06:07:47;;;;;;;25.15;12.40;;;20.60;59.60;;;;;;5033506;28;20029;-70
2022/04/20 06:10:14;;;;;;;23.73;13.30;;;20.70;59.80;;;;;;5039686;28;20025;-69
2022/04/20 06:12:41;;;;;;;18.67;12.75;;;20.70;59.90;;;;;;5032894;28;20017;-70
2022/04/20 06:15:08;;;;;;;26.48;14.60;;;20.70;60.00;;;;;;5031307;28;20029;-69
2022/04/20 06:17:35;;;;;;;19.35;13.48;;;20.70;60.00;;;;;;5031632;28;20026;-70
2022/04/20 06:20:02;;;;;;;20.50;12.38;;;20.70;60.00;;;;;;5024197;28;20105;-70
2022/04/20 06:22:28;;;;;;;21.88;14.30;;;20.70;60.30;;;;;;5030674;28;20440;-70
2022/04/20 06:24:54;;;;;;;24.92;14.38;;;20.70;60.30;;;;;;5030914;28;20498;-69
2022/04/20 06:27:21;;;;;;;21.65;14.02;;;20.80;60.40;;;;;;5032672;28;20025;-70
2022/04/20 06:29:47;;;;;;;22.42;12.70;;;20.80;60.50;;;;;;5030530;28;20373;-70
2022/04/20 06:32:14;;;;;;;22.08;13.18;;;20.80;60.60;;;;;;5028195;28;20021;-70
2022/04/20 06:34:40;;;;;;;21.17;12.82;;;20.80;60.60;;;;;;5029464;28;20053;-70
2022/04/20 06:37:08;;;;;;;23.65;13.88;;;20.90;60.80;;;;;;5033612;28;20032;-70
2022/04/20 06:39:34;;;;;;;21.20;13.95;;;20.80;60.70;;;;;;5031743;28;20073;-70
2022/04/20 06:42:01;;;;;;;23.33;13.48;;;20.90;60.90;;;;;;5035481;28;20040;-70
2022/04/20 06:44:27;;;;;;;25.27;13.35;;;20.90;60.90;;;;;;5032416;28;20034;-70
2022/04/20 06:46:54;;;;;;;28.17;13.27;;;20.90;60.80;;;;;;5031463;28;20022;-70
2022/04/20 06:49:21;;;;;;;21.15;13.57;;;21.00;61.60;;;;;;5031997;28;20365;-70
2022/04/20 07:00:02;;;;;;;19.65;12.70;;;21.10;61.00;;;;;;5031294;28;20037;-70
2022/04/20 07:02:28;;;;;;;25.05;12.25;;;21.20;61.00;;;;;;5025566;28;20396;-70
2022/04/20 07:04:55;;;;;;;26.65;13.55;;;21.20;61.10;;;;;;5031070;28;20079;-70
2022/04/20 07:07:22;;;;;;;16.88;10.40;;;21.30;61.10;;;;;;5035329;28;20049;-70
2022/04/20 07:09:48;;;;;;;26.30;11.77;;;21.30;61.10;;;;;;5031129;28;20047;-70
2022/04/20 07:12:15;;;;;;;18.40;10.15;;;21.30;61.10;;;;;;5029709;28;20030;-70
2022/04/20 07:14:41;;;;;;;24.83;11.40;;;21.40;61.00;;;;;;5027351;28;20033;-70
2022/04/20 07:17:08;;;;;;;13.60;9.77;;;21.40;61.00;;;;;;5038623;28;20032;-70
2022/04/20 07:19:35;;;;;;;17.17;8.73;;;21.50;60.70;;;;;;5037737;28;20958;-70
2022/04/20 07:22:02;;;;;;;8.60;6.07;;;21.50;60.30;;;;;;5033838;28;20500;-70
2022/04/20 07:24:28;;;;;;;8.07;4.78;;;21.60;59.20;;;;;;5034683;28;20396;-70
2022/04/20 07:26:55;;;;;;;10.95;3.83;;;21.60;57.60;;;;;;5035527;28;20014;-70
2022/04/20 07:29:21;;;;;;;10.63;4.63;;;21.70;55.70;;;;;;5042784;28;20047;-70
2022/04/20 07:31:48;;;;;;;9.10;2.40;;;21.80;54.20;;;;;;5031145;28;20105;-70
2022/04/20 07:34:14;;;;;;;10.30;2.58;;;21.90;51.50;;;;;;5038285;28;20025;-70
2022/04/20 07:36:40;;;;;;;13.55;2.30;;;22.00;50.10;;;;;;5031304;28;20083;-70
2022/04/20 07:39:07;;;;;;;11.18;2.53;;;22.20;49.10;;;;;;5040679;28;20103;-70
2022/04/20 07:41:33;;;;;;;9.68;2.13;;;22.20;48.50;;;;;;5028731;28;20404;-70
2022/04/20 07:44:00;;;;;;;6.80;1.85;;;22.40;47.90;;;;;;5038972;28;20018;-70
2022/04/20 07:46:27;;;;;;;7.43;2.22;;;22.50;47.60;;;;;;5033180;28;20078;-70
2022/04/20 07:48:53;;;;;;;14.93;2.10;;;22.60;47.10;;;;;;5037503;28;20080;-70
2022/04/20 07:51:19;;;;;;;13.40;3.45;;;22.80;47.10;;;;;;5035410;28;20030;-70
2022/04/20 07:53:46;;;;;;;16.45;1.98;;;22.90;46.70;;;;;;5033824;28;20025;-70
2022/04/20 07:56:12;;;;;;;11.50;1.73;;;23.00;46.40;;;;;;5037678;28;20070;-71
2022/04/20 07:58:39;;;;;;;10.73;2.67;;;23.10;45.60;;;;;;5034113;28;20021;-71
2022/04/20 08:01:05;;;;;;;5.07;1.52;;;23.20;45.70;;;;;;5033564;28;20611;-70
2022/04/20 08:03:32;;;;;;;11.93;1.80;;;23.30;45.10;;;;;;5030611;28;20029;-70
2022/04/20 10:19:12;;;;;;;8.55;1.83;;;25.20;40.00;;;;;;5146314;27;20437;-71
2022/04/20 10:21:48;;;;;;;7.28;2.42;;;26.00;39.60;;;;;;5129032;27;20400;-70
2022/04/20 10:24:21;;;;;;;5.32;1.90;;;26.10;39.50;;;;;;5126885;27;20053;-70
2022/04/20 10:26:48;;;;;;;5.72;1.90;;;26.30;39.20;;;;;;5127228;27;20884;-71
2022/04/20 10:29:18;;;;;;;3.03;1.73;;;26.40;39.20;;;;;;5127521;27;20023;-71
2022/04/20 10:32:06;;;;;;;5.13;1.60;;;26.50;39.60;;;;;;5127652;27;20447;-71
2022/04/20 10:34:33;;;;;;;6.72;2.55;;;26.60;39.50;;;;;;5121129;27;20031;-71
2022/04/20 10:37:02;;;;;;;7.03;2.17;;;26.70;39.40;;;;;;5126185;27;20478;-71
2022/04/20 10:39:38;;;;;;;4.70;1.98;;;26.70;39.20;;;;;;5127134;27;20035;-71
2022/04/20 10:42:20;;;;;;;5.40;2.60;;;26.70;39.00;;;;;;5128013;27;20024;-71
2022/04/20 10:44:55;;;;;;;10.13;2.10;;;26.80;39.30;;;;;;5126918;27;20077;-71
2022/04/20 10:47:41;;;;;;;7.15;3.10;;;26.80;38.60;;;;;;5123643;28;20031;-71
2022/04/20 10:50:22;;;;;;;6.45;2.85;;;26.90;38.60;;;;;;5125592;27;20076;-71
2022/04/20 10:52:57;;;;;;;6.07;2.03;;;26.90;38.30;;;;;;5126718;27;20031;-71
2022/04/20 10:55:32;;;;;;;4.25;2.28;;;27.00;38.30;;;;;;5122327;27;20450;-71
2022/04/20 10:58:04;;;;;;;7.43;2.63;;;27.00;38.30;;;;;;5124854;27;20035;-71
2022/04/20 11:00:38;;;;;;;4.80;1.70;;;27.10;38.30;;;;;;5126892;27;20385;-71
2022/04/20 11:03:05;;;;;;;1.98;1.63;;;27.10;38.10;;;;;;5127243;27;20024;-71
2022/04/20 11:05:48;;;;;;;4.85;2.10;;;27.20;38.20;;;;;;5126999;27;20076;-71
2022/04/20 11:08:15;;;;;;;2.90;1.70;;;27.30;38.30;;;;;;5125211;27;20453;-71
2022/04/20 11:19:52;;;;;;;4.32;1.60;;;27.60;37.50;;;;;;5116200;27;20046;-71
2022/04/20 11:22:19;;;;;;;3.03;1.20;;;27.70;37.50;;;;;;5112322;27;20038;-71
2022/04/20 11:24:47;;;;;;;9.18;1.52;;;27.70;37.50;;;;;;5113050;27;20481;-71
2022/04/20 11:27:14;;;;;;;5.10;1.92;;;27.80;37.10;;;;;;5115047;27;20490;-71
2022/04/20 11:29:43;;;;;;;11.32;1.88;;;27.80;37.30;;;;;;5111984;27;20428;-71
2022/04/20 11:32:10;;;;;;;4.82;1.65;;;27.90;37.20;;;;;;5112008;27;20015;-71
2022/04/20 11:34:41;;;;;;;3.70;2.20;;;27.90;36.80;;;;;;5119364;27;20024;-71
2022/04/20 11:37:09;;;;;;;3.47;1.73;;;28.00;36.70;;;;;;5110979;28;20016;-71
2022/04/20 11:39:36;;;;;;;4.72;1.75;;;28.00;36.30;;;;;;5112907;27;20729;-71
2022/04/20 11:42:05;;;;;;;6.38;1.90;;;28.00;36.30;;;;;;5109792;28;20091;-71
2022/04/20 11:44:36;;;;;;;4.47;1.42;;;28.10;36.50;;;;;;5117404;27;20027;-71
2022/04/20 11:47:05;;;;;;;10.85;2.05;;;28.10;36.30;;;;;;5115569;27;20035;-71
2022/04/20 11:49:40;;;;;;;4.75;1.80;;;28.20;36.40;;;;;;5111720;27;20020;-71
2022/04/20 11:52:17;;;;;;;6.90;1.40;;;28.10;36.40;;;;;;5114484;27;20027;-71
2022/04/20 11:54:48;;;;;;;18.60;2.67;;;28.20;36.40;;;;;;5112207;27;20018;-71
2022/04/20 11:57:16;;;;;;;7.65;1.63;;;28.20;35.90;;;;;;5117198;27;20401;-71
2022/04/20 11:59:47;;;;;;;5.95;1.65;;;28.20;36.10;;;;;;5112221;27;20115;-71
2022/04/20 12:02:16;;;;;;;3.78;1.95;;;28.30;36.00;;;;;;5114943;27;20034;-71
2022/04/20 12:04:43;;;;;;;4.65;1.60;;;28.30;36.10;;;;;;5112543;27;20069;-71
2022/04/20 12:07:10;;;;;;;6.28;1.50;;;28.30;36.20;;;;;;5110453;27;20036;-71
2022/04/20 12:09:40;;;;;;;3.97;1.60;;;28.40;36.30;;;;;;5111740;27;20039;-71
2022/04/20 12:12:18;;;;;;;3.40;1.60;;;28.40;36.30;;;;;;5110796;27;20028;-70
2022/04/20 12:14:46;;;;;;;5.13;1.80;;;28.40;36.40;;;;;;5116928;27;20075;-71
2022/04/20 12:17:16;;;;;;;6.43;1.67;;;28.40;36.40;;;;;;5109648;27;20044;-70
2022/04/20 12:19:42;;;;;;;10.38;2.13;;;28.40;36.70;;;;;;5112833;27;20449;-71
2022/04/20 12:22:15;;;;;;;3.38;1.58;;;28.30;36.60;;;;;;5110030;27;20020;-71
2022/04/20 12:24:42;;;;;;;8.05;2.00;;;28.40;36.70;;;;;;5108928;27;20114;-71
2022/04/20 12:27:19;;;;;;;5.18;1.98;;;28.30;36.60;;;;;;5110673;28;20024;-71
2022/04/20 12:29:54;;;;;;;6.90;2.97;;;28.30;37.10;;;;;;5109184;27;20024;-71
2022/04/20 12:32:42;;;;;;;6.40;2.42;;;28.30;37.10;;;;;;5107843;28;20047;-71
2022/04/20 12:35:08;;;;;;;7.25;2.22;;;28.20;36.90;;;;;;5110013;27;20106;-71
2022/04/20 12:37:39;;;;;;;6.82;2.67;;;28.30;37.00;;;;;;5112702;27;20428;-71
2022/04/20 12:40:24;;;;;;;8.75;1.83;;;28.20;37.10;;;;;;5112701;27;20024;-71
2022/04/20 12:43:09;;;;;;;6.65;1.60;;;28.20;37.60;;;;;;5109196;28;20487;-70
2022/04/20 12:45:36;;;;;;;;;;;28.20;37.70;;;;;;5110775;27;20552;-71
2022/04/20 12:48:04;;;;;;;8.57;1.52;;;28.20;37.80;;;;;;5109810;28;20358;-72
2022/04/20 12:50:39;;;;;;;4.90;1.50;;;28.30;38.00;;;;;;5113170;27;20047;-71
2022/04/20 12:53:06;;;;;;;2.58;1.55;;;28.30;38.50;;;;;;5110681;27;20027;-71
2022/04/20 13:04:15;;;;;;;7.65;1.35;;;28.10;39.50;;;;;;5112034;27;20070;-71
2022/04/20 13:06:42;;;;;;;3.88;1.40;;;28.10;39.70;;;;;;5109382;28;20236;-71
2022/04/20 13:09:08;;;;;;;3.22;1.35;;;28.00;40.10;;;;;;5108614;27;20470;-71
2022/04/20 13:11:35;;;;;;;2.15;1.00;;;28.00;40.10;;;;;;5109868;28;20434;-71
2022/04/20 13:14:01;;;;;;;2.17;1.25;;;27.90;40.00;;;;;;5111638;27;20020;-72
2022/04/20 13:16:28;;;;;;;5.65;1.05;;;27.90;40.00;;;;;;5113542;27;20073;-72
2022/04/20 13:18:55;;;;;;;3.47;0.98;;;27.80;40.10;;;;;;5108225;27;20743;-72
2022/04/20 13:21:23;;;;;;;15.48;1.85;;;27.80;40.30;;;;;;5110825;27;20027;-71
2022/04/20 13:23:50;;;;;;;5.75;1.55;;;27.80;40.60;;;;;;5111536;27;20068;-71
2022/04/20 13:29:01;;;;;;;5.90;0.75;;;27.80;40.60;;;;;;5109391;27;20421;-71
2022/04/20 13:31:28;;;;;;;2.50;1.15;;;27.80;40.50;;;;;;5109659;27;20103;-71
2022/04/20 13:33:55;;;;;;;4.40;1.00;;;27.70;40.10;;;;;;5113107;27;20070;-71
2022/04/20 13:36:21;;;;;;;2.45;0.90;;;27.70;40.10;;;;;;5110124;27;20035;-71
2022/04/20 13:38:48;;;;;;;6.68;1.15;;;27.70;40.00;;;;;;5111078;27;20026;-71
2022/04/20 13:41:14;;;;;;;2.65;1.00;;;27.70;39.80;;;;;;5109984;27;20016;-71
2022/04/20 13:43:42;;;;;;;3.42;1.10;;;27.70;39.80;;;;;;5107990;28;20085;-71
2022/04/20 13:46:08;;;;;;;9.52;1.58;;;27.70;39.90;;;;;;5110452;27;20106;-71
2022/04/20 13:48:35;;;;;;;15.75;1.63;;;27.70;40.00;;;;;;5112623;27;20106;-71
2022/04/20 13:51:01;;;;;;;1.95;1.05;;;27.70;40.00;;;;;;5111506;28;20430;-71
2022/04/20 13:53:28;;;;;;;6.10;1.30;;;27.70;39.70;;;;;;5109740;28;20473;-71
2022/04/20 13:55:54;;;;;;;1.65;0.98;;;27.80;39.50;;;;;;5112969;27;20505;-71
2022/04/20 13:58:21;;;;;;;2.20;1.33;;;27.80;39.40;;;;;;5112247;28;20024;-72
2022/04/20 14:00:50;;;;;;;1.08;0.82;;;27.80;39.30;;;;;;5114365;27;20020;-71
2022/04/20 14:03:17;;;;;;;2.58;1.50;;;27.70;39.10;;;;;;5111787;27;20016;-71
2022/04/20 14:05:43;;;;;;;0.98;0.80;;;27.70;38.90;;;;;;5110083;28;20019;-71
2022/04/20 14:08:10;;;;;;;1.42;1.23;;;27.70;38.90;;;;;;5110602;28;20023;-71
2022/04/20 14:10:38;;;;;;;1.08;1.05;;;27.70;39.00;;;;;;5111498;28;20068;-71
2022/04/20 14:13:06;;;;;;;5.07;0.98;;;27.60;38.90;;;;;;5107246;28;20483;-72
2022/04/20 14:15:32;;;;;;;3.45;1.23;;;27.60;38.90;;;;;;5115178;28;20031;-71
2022/04/20 14:17:59;;;;;;;1.90;0.80;;;27.60;38.80;;;;;;5111136;28;20037;-71
2022/04/20 14:20:25;;;;;;;4.40;1.20;;;27.60;39.00;;;;;;5112404;28;20030;-71
2022/04/20 14:22:52;;;;;;;9.07;1.23;;;27.60;39.10;;;;;;5109117;28;20491;-72
2022/04/20 14:33:32;;;;;;;6.30;1.75;;;27.50;38.80;;;;;;5114346;28;20043;-71
2022/04/20 14:35:59;;;;;;;1.70;0.98;;;27.50;38.80;;;;;;5108430;28;20046;-71
2022/04/20 14:38:25;;;;;;;1.20;1.02;;;27.40;38.50;;;;;;5109757;28;20067;-71
2022/04/20 14:40:52;;;;;;;2.80;1.20;;;27.40;38.30;;;;;;5112465;28;20016;-71
2022/04/20 14:43:20;;;;;;;3.80;1.17;;;27.40;38.10;;;;;;5113401;28;20092;-71
2022/04/20 14:45:47;;;;;;;3.35;1.10;;;27.30;38.10;;;;;;5113393;28;20505;-71
2022/04/20 14:48:14;;;;;;;3.15;0.98;;;27.30;38.10;;;;;;5112971;28;20104;-71
2022/04/20 14:50:41;;;;;;;12.13;2.03;;;27.20;38.30;;;;;;5107793;28;20161;-71
2022/04/20 14:53:08;;;;;;;7.03;1.90;;;27.10;38.40;;;;;;5109286;27;20355;-71
2022/04/20 14:55:36;;;;;;;9.55;2.00;;;27.10;38.80;;;;;;5111809;27;20564;-74
2022/04/20 14:58:04;;;;;;;28.02;4.03;;;27.10;39.80;;;;;;5115202;27;20390;-73
2022/04/20 15:00:32;;;;;;;4.72;2.03;;;27.10;40.20;;;;;;5114933;27;20539;-70
2022/04/20 15:03:00;;;;;;;7.70;1.73;;;27.10;39.60;;;;;;5115686;27;20103;-70
2022/04/20 15:05:26;;;;;;;2.45;1.40;;;27.00;39.20;;;;;;5111452;28;20015;-70
2022/04/20 15:07:54;;;;;;;4.22;1.35;;;27.00;38.90;;;;;;5110487;27;20042;-70
2022/04/20 15:10:21;;;;;;;3.10;1.60;;;27.00;38.80;;;;;;5109582;27;20085;-70
2022/04/20 15:12:50;;;;;;;8.32;2.00;;;27.00;38.70;;;;;;5115969;27;20517;-74
2022/04/20 15:15:17;;;;;;;3.55;1.63;;;27.00;38.80;;;;;;5115662;27;20020;-75
2022/04/20 15:17:44;;;;;;;8.32;1.73;;;26.90;38.80;;;;;;5112051;27;20059;-70
2022/04/20 15:20:11;;;;;;;2.42;2.10;;;26.90;38.80;;;;;;5111445;27;20058;-72
2022/04/20 15:22:38;;;;;;;61.25;34.78;;;26.80;38.90;;;;;;5107844;27;20111;-72
2022/04/20 15:25:05;;;;;;;30.42;19.75;;;26.80;39.60;;;;;;5117056;27;20028;-72
2022/04/20 15:27:32;;;;;;;16.58;10.13;;;26.80;40.10;;;;;;5113555;27;20074;-72
2022/04/20 15:29:58;;;;;;;11.02;5.22;;;26.70;40.30;;;;;;5113237;27;20382;-72
2022/04/20 15:32:25;;;;;;;7.03;3.40;;;26.70;40.20;;;;;;5114598;27;20362;-71
2022/04/20 15:34:52;;;;;;;17.98;4.43;;;26.70;40.00;;;;;;5111151;27;20019;-71
2022/04/20 15:37:19;;;;;;;13.25;2.40;;;26.70;40.20;;;;;;5115620;27;20482;-70
2022/04/20 15:39:49;;;;;;;6.53;2.22;;;26.60;40.50;;;;;;5116697;27;20080;-70
2022/04/20 15:42:17;;;;;;;12.70;3.28;;;26.60;40.60;;;;;;5113260;27;20028;-69
2022/04/20 15:44:44;;;;;;;7.93;2.35;;;26.60;41.10;;;;;;5110388;27;20031;-69
2022/04/20 15:47:10;;;;;;;9.10;2.95;;;26.50;40.90;;;;;;5108724;28;20403;-66
2022/04/20 15:49:37;;;;;;;9.65;3.42;;;26.50;40.80;;;;;;5114786;27;20020;-71
2022/04/20 15:52:04;;;;;;;10.68;4.13;;;26.40;41.00;;;;;;5111758;27;20603;-77
2022/04/20 15:54:31;;;;;;;15.57;4.18;;;26.40;41.20;;;;;;5113617;27;20020;-73
2022/04/20 16:02:26;;;;;;;9.90;3.03;;;26.30;41.10;;;;;;5110133;27;20656;-72
2022/04/20 18:20:58;;;;;;;7.57;5.60;;;24.40;49.70;;;;;;5135402;27;20441;-76
2022/04/20 18:23:25;;;;;;;8.50;6.10;;;24.40;50.90;;;;;;5106852;28;20385;-66
2022/04/20 18:25:51;;;;;;;20.08;5.78;;;24.40;50.90;;;;;;5104866;28;20020;-72
2022/04/20 18:28:18;;;;;;;8.48;5.10;;;24.40;50.90;;;;;;5109897;28;20495;-75
2022/04/20 18:30:45;;;;;;;10.95;5.13;;;24.40;51.00;;;;;;5103219;28;20137;-70
2022/04/20 18:33:11;;;;;;;12.15;4.85;;;24.40;51.10;;;;;;5105131;28;20031;-66
2022/04/20 18:35:38;;;;;;;8.00;4.40;;;24.40;51.10;;;;;;5101962;28;20023;-72
2022/04/20 18:38:14;;;;;;;8.75;4.88;;;24.50;51.10;;;;;;5107733;28;20031;-77
2022/04/20 18:40:50;;;;;;;8.95;5.53;;;24.40;51.10;;;;;;5106972;28;20107;-79
2022/04/20 18:43:21;;;;;;;7.72;4.38;;;24.40;51.10;;;;;;5106613;28;20526;-67
2022/04/20 18:45:52;;;;;;;8.30;4.72;;;24.40;51.20;;;;;;5104198;28;20510;-68
2022/04/20 18:48:18;;;;;;;10.15;4.97;;;24.40;51.20;;;;;;5105299;28;20027;-75
2022/04/20 18:50:45;;;;;;;10.95;4.40;;;24.40;51.30;;;;;;5105127;28;20051;-72
2022/04/20 18:59:41;;;;;;;7.03;5.05;;;24.30;51.40;;;;;;5103520;28;20043;-68
2022/04/20 19:02:47;;;;;;;6.47;4.15;;;24.30;51.40;;;;;;5102641;28;20038;-70
2022/04/20 19:05:14;;;;;;;7.18;4.10;;;24.30;52.10;;;;;;5104614;28;20489;-67
2022/04/20 19:07:41;;;;;;;7.07;4.30;;;24.20;51.60;;;;;;5102229;28;20104;-68
2022/04/20 19:10:19;;;;;;;6.82;3.92;;;24.30;51.70;;;;;;5105809;28;20036;-71
2022/04/20 19:12:45;;;;;;;7.63;3.63;;;24.20;51.60;;;;;;5088456;28;20360;-70
2022/04/20 19:15:52;;;;;;;12.60;4.63;;;24.20;51.60;;;;;;5101420;28;20024;-67
2022/04/20 19:18:24;;;;;;;8.90;4.53;;;24.20;51.60;;;;;;5097779;28;20489;-67
2022/04/20 19:21:30;;;;;;;5.50;4.07;;;24.10;51.60;;;;;;5091101;28;20068;-67
2022/04/20 19:24:36;;;;;;;8.27;4.55;;;24.10;51.60;;;;;;5084544;28;20426;-66
2022/04/20 19:27:46;;;;;;;8.10;4.95;;;24.10;51.70;;;;;;5087051;28;20150;-73
2022/04/20 19:30:33;;;;;;;11.68;4.93;;;24.00;51.60;;;;;;5088629;28;20036;-77
2022/04/20 19:33:42;;;;;;;21.00;6.35;;;24.00;51.60;;;;;;5087901;28;20031;-77
2022/04/20 19:36:08;;;;;;;17.95;7.35;;;24.00;51.60;;;;;;5089052;28;20489;-72
2022/04/20 19:39:46;;;;;;;10.77;6.75;;;24.00;51.90;;;;;;5086889;28;20020;-78
2022/04/20 19:42:43;;;;;;;12.07;7.47;;;24.00;52.00;;;;;;5082794;28;20639;-66
2022/04/20 19:45:10;;;;;;;16.40;8.43;;;23.90;51.80;;;;;;5089188;28;20078;-69
2022/04/20 19:47:40;;;;;;;15.63;7.50;;;23.90;51.70;;;;;;5087854;28;20031;-70
2022/04/20 19:50:11;;;;;;;11.27;7.00;;;23.90;51.60;;;;;;5085262;28;20044;-73
2022/04/20 19:52:39;;;;;;;13.43;7.32;;;23.90;51.60;;;;;;5088604;28;20044;-69
2022/04/20 19:55:06;;;;;;;16.33;7.40;;;23.80;51.60;;;;;;5089746;28;20121;-77
2022/04/20 19:57:34;;;;;;;10.43;6.32;;;23.80;51.50;;;;;;5090422;28;20544;-77
2022/04/20 20:00:00;;;;;;;10.85;6.47;;;23.80;51.40;;;;;;5087522;28;20106;-65
2022/04/20 20:02:27;;;;;;;9.20;6.60;;;23.80;51.40;;;;;;5088565;28;20769;-73
2022/04/20 20:04:53;;;;;;;18.63;6.70;;;23.80;51.40;;;;;;5089269;28;20128;-70
2022/04/20 20:07:20;;;;;;;14.13;7.05;;;23.80;51.60;;;;;;5088813;28;20019;-74
2022/04/20 20:09:47;;;;;;;13.73;7.72;;;23.70;51.50;;;;;;5089636;28;20032;-77
2022/04/20 20:12:19;;;;;;;14.70;7.45;;;23.70;51.60;;;;;;5089256;28;20024;-71
2022/04/20 20:14:46;;;;;;;13.60;8.48;;;23.70;51.60;;;;;;5089467;28;20478;-79
2022/04/20 20:17:16;;;;;;;15.82;8.38;;;23.70;51.60;;;;;;5088144;28;20423;-72
2022/04/20 20:19:43;;;;;;;13.30;7.47;;;23.70;51.70;;;;;;5087977;28;20149;-77
2022/04/20 20:22:09;;;;;;;13.93;7.47;;;23.60;51.80;;;;;;5088870;28;20024;-72
2022/04/20 20:30:09;;;;;;;13.15;7.75;;;23.60;51.90;;;;;;5086573;28;20452;-74
2022/04/20 20:32:37;;;;;;;13.10;6.82;;;23.60;52.00;;;;;;5087718;28;20032;-79
2022/04/20 20:35:05;;;;;;;14.73;7.82;;;23.60;52.20;;;;;;5087785;28;20102;-70
2022/04/20 20:37:32;;;;;;;13.23;8.30;;;23.60;52.40;;;;;;5086438;28;20460;-77
2022/04/20 20:39:59;;;;;;;11.52;7.75;;;23.50;52.50;;;;;;5089615;28;20482;-79
2022/04/20 20:42:26;;;;;;;14.10;8.05;;;23.50;52.80;;;;;;5088170;28;20149;-79
2022/04/20 20:44:52;;;;;;;16.58;8.95;;;23.50;53.10;;;;;;5089283;28;20020;-78
2022/04/20 20:47:19;;;;;;;19.15;8.40;;;23.50;53.40;;;;;;5087095;28;20055;-80
2022/04/20 20:52:34;;;;;;;13.73;8.30;;;23.50;54.10;;;;;;5088918;28;20123;-68
2022/04/20 20:55:06;;;;;;;15.18;9.10;;;23.50;54.50;;;;;;5088147;28;20113;-77
2022/04/20 20:57:33;;;;;;;19.77;10.45;;;23.50;55.00;;;;;;5089186;28;20035;-73
2022/04/20 20:59:59;;;;;;;28.15;9.95;;;23.50;56.00;;;;;;5087888;28;20580;-75